Alhambra, Illinois
Current Conditions -  °F | °C
As of 10:50 AM on Thursday 18 Dec 2014 (Local Time) from KALN Reporting Station
Light Snow Light Snow  
Wind Chill: 25°   Ceiling: 7000
Heat Index: 30°   Visibility: 7mi
Dew Point: 25°   Wind: 5mph
Humidity: 80%   Direction: NA
Pressure: 30.31"   Gusts: NA
Location:  38.89°N, 89.73°W
Report Text: KALN 181650Z VRB04KT 7SM -SN OVC070 M01/M04 A3031
Loading
Personal Weather Stations






























Interactive Weather Map New forecast layout! Learn more

10-Day Weather Forecast

Advertisements
Track Severe Weather on mobile